KNEL

Lakehurst Maxfield Field Airport

Lakehurst, New Jersey, USA
METAR KNEL 190600Z AUTO 00000KT 10SM CLR M09/M11 A3004 RMK AO2 SLP173 6//// T10891111 11033 21089 58003 FZRANO PNO $
Observed Flight Rules
Jan-19 @ 06:00 UTC (an hour ago) Visual Flight Rules
Wind Visibility Clouds
Calm 10 miles
  • Clear skies
Temperatures Readings
Current -9°C / 16°F
Dewpoint -11°C / 12°F
Humidity 86%
Altimeter 30.04" Hg
Pressure 1017.3 hPa
Elevation 31
METAR KNEL 190600Z AUTO 00000KT 10SM CLR M09/M11 A3004 RMK AO2 SLP173 6//// T10891111 11033 21089 58003 FZRANO PNO $
Observed Flight Rules
Jan-19 @ 06:00 UTC
(an hour ago)
VFR
Wind Visibility
Calm 10 miles
Clouds
  • Clear skies
Temperature Dewpoint
-9°C / 16°F -11°C / 12°F
Humidity Altimeter Pressure
86% 30.04" Hg 1017.3 hPa